sensor_id;sensor_type;location;lat;lon;timestamp;temperature;humidity
58447;DHT22;44240;51.840;7.258;2022-08-01T00:01:43;21.00;99.90
58447;DHT22;44240;51.840;7.258;2022-08-01T00:04:09;20.90;99.90
58447;DHT22;44240;51.840;7.258;2022-08-01T00:06:34;21.00;99.90
58447;DHT22;44240;51.840;7.258;2022-08-01T00:09:00;21.00;99.90
58447;DHT22;44240;51.840;7.258;2022-08-01T00:11:26;20.90;99.90
58447;DHT22;44240;51.840;7.258;2022-08-01T00:13:52;21.00;99.90
58447;DHT22;44240;51.840;7.258;2022-08-01T00:16:18;21.00;99.90
58447;DHT22;44240;51.840;7.258;2022-08-01T00:18:43;20.90;99.90
58447;DHT22;44240;51.840;7.258;2022-08-01T00:21:09;20.90;99.90
58447;DHT22;44240;51.840;7.258;2022-08-01T00:23:35;21.00;99.90
58447;DHT22;44240;51.840;7.258;2022-08-01T00:26:00;20.90;99.90
58447;DHT22;44240;51.840;7.258;2022-08-01T00:28:26;21.00;99.90
58447;DHT22;44240;51.840;7.258;2022-08-01T00:30:51;20.90;99.90
58447;DHT22;44240;51.840;7.258;2022-08-01T00:33:17;21.00;99.90
58447;DHT22;44240;51.840;7.258;2022-08-01T00:35:43;21.00;99.90
58447;DHT22;44240;51.840;7.258;2022-08-01T00:38:08;21.00;99.90
58447;DHT22;44240;51.840;7.258;2022-08-01T00:40:34;21.00;99.90
58447;DHT22;44240;51.840;7.258;2022-08-01T00:42:59;21.00;99.90
58447;DHT22;44240;51.840;7.258;2022-08-01T00:45:25;20.90;99.90
58447;DHT22;44240;51.840;7.258;2022-08-01T00:47:51;21.00;99.90
58447;DHT22;44240;51.840;7.258;2022-08-01T00:50:16;20.90;99.90
58447;DHT22;44240;51.840;7.258;2022-08-01T00:52:42;21.00;99.90
58447;DHT22;44240;51.840;7.258;2022-08-01T00:55:10;21.00;99.90
58447;DHT22;44240;51.840;7.258;2022-08-01T00:57:37;20.90;99.90
58447;DHT22;44240;51.840;7.258;2022-08-01T01:00:05;20.90;99.90
58447;DHT22;44240;51.840;7.258;2022-08-01T01:02:31;20.90;99.90
58447;DHT22;44240;51.840;7.258;2022-08-01T01:04:57;20.80;99.90
58447;DHT22;44240;51.840;7.258;2022-08-01T01:07:32;20.80;99.90
58447;DHT22;44240;51.840;7.258;2022-08-01T01:10:15;20.70;99.90
58447;DHT22;44240;51.840;7.258;2022-08-01T01:12:50;20.70;99.90
58447;DHT22;44240;51.840;7.258;2022-08-01T01:15:22;20.70;99.90
58447;DHT22;44240;51.840;7.258;2022-08-01T01:18:04;20.70;99.90
58447;DHT22;44240;51.840;7.258;2022-08-01T01:20:37;20.70;99.90
58447;DHT22;44240;51.840;7.258;2022-08-01T01:31:08;20.60;99.90
58447;DHT22;44240;51.840;7.258;2022-08-01T01:33:37;20.60;99.90
58447;DHT22;44240;51.840;7.258;2022-08-01T01:36:07;20.70;99.90
58447;DHT22;44240;51.840;7.258;2022-08-01T01:38:37;20.70;99.90
58447;DHT22;44240;51.840;7.258;2022-08-01T01:41:08;20.70;99.90
58447;DHT22;44240;51.840;7.258;2022-08-01T01:43:35;20.70;99.90
58447;DHT22;44240;51.840;7.258;2022-08-01T01:46:03;20.70;99.90
58447;DHT22;44240;51.840;7.258;2022-08-01T01:48:30;20.70;99.90
58447;DHT22;44240;51.840;7.258;2022-08-01T01:50:59;20.70;99.90
58447;DHT22;44240;51.840;7.258;2022-08-01T01:53:27;20.70;99.90
58447;DHT22;44240;51.840;7.258;2022-08-01T01:55:55;20.70;99.90
58447;DHT22;44240;51.840;7.258;2022-08-01T01:58:22;20.60;99.90
58447;DHT22;44240;51.840;7.258;2022-08-01T02:00:50;20.60;99.90
58447;DHT22;44240;51.840;7.258;2022-08-01T02:03:18;20.60;99.90
58447;DHT22;44240;51.840;7.258;2022-08-01T02:05:45;20.60;99.90
58447;DHT22;44240;51.840;7.258;2022-08-01T02:08:15;20.60;99.90
58447;DHT22;44240;51.840;7.258;2022-08-01T02:10:42;20.60;99.90
58447;DHT22;44240;51.840;7.258;2022-08-01T02:13:34;20.50;99.90
58447;DHT22;44240;51.840;7.258;2022-08-01T02:16:01;20.50;99.90
58447;DHT22;44240;51.840;7.258;2022-08-01T02:18:28;20.50;99.90
58447;DHT22;44240;51.840;7.258;2022-08-01T02:20:54;20.50;99.90
58447;DHT22;44240;51.840;7.258;2022-08-01T02:23:23;20.50;99.90
58447;DHT22;44240;51.840;7.258;2022-08-01T02:25:50;20.50;99.90
58447;DHT22;44240;51.840;7.258;2022-08-01T02:28:21;20.50;99.90
58447;DHT22;44240;51.840;7.258;2022-08-01T02:30:51;20.50;99.90
58447;DHT22;44240;51.840;7.258;2022-08-01T02:33:19;20.50;99.90
58447;DHT22;44240;51.840;7.258;2022-08-01T02:35:50;20.50;99.90
58447;DHT22;44240;51.840;7.258;2022-08-01T02:38:17;20.50;99.90
58447;DHT22;44240;51.840;7.258;2022-08-01T02:40:45;20.50;99.90
58447;DHT22;44240;51.840;7.258;2022-08-01T02:43:12;20.50;99.90
58447;DHT22;44240;51.840;7.258;2022-08-01T02:45:42;20.40;99.90
58447;DHT22;44240;51.840;7.258;2022-08-01T02:48:14;20.40;99.90
58447;DHT22;44240;51.840;7.258;2022-08-01T02:50:44;20.40;99.90
58447;DHT22;44240;51.840;7.258;2022-08-01T02:53:12;20.30;99.90
58447;DHT22;44240;51.840;7.258;2022-08-01T02:55:39;20.30;99.90
58447;DHT22;44240;51.840;7.258;2022-08-01T02:58:08;20.30;99.90
58447;DHT22;44240;51.840;7.258;2022-08-01T03:00:35;20.30;99.90
58447;DHT22;44240;51.840;7.258;2022-08-01T03:03:01;20.30;99.90
58447;DHT22;44240;51.840;7.258;2022-08-01T03:05:30;20.30;99.90
58447;DHT22;44240;51.840;7.258;2022-08-01T03:07:58;20.30;99.90
58447;DHT22;44240;51.840;7.258;2022-08-01T03:10:27;20.30;99.90
58447;DHT22;44240;51.840;7.258;2022-08-01T03:12:54;20.30;99.90
58447;DHT22;44240;51.840;7.258;2022-08-01T03:15:21;20.30;99.90
58447;DHT22;44240;51.840;7.258;2022-08-01T03:17:49;20.20;99.90
58447;DHT22;44240;51.840;7.258;2022-08-01T03:20:19;20.30;99.90
58447;DHT22;44240;51.840;7.258;2022-08-01T03:22:47;20.20;99.90
58447;DHT22;44240;51.840;7.258;2022-08-01T03:25:15;20.20;99.90
58447;DHT22;44240;51.840;7.258;2022-08-01T03:27:42;20.20;99.90
58447;DHT22;44240;51.840;7.258;2022-08-01T03:30:09;20.20;99.90
58447;DHT22;44240;51.840;7.258;2022-08-01T03:32:35;20.20;99.90
58447;DHT22;44240;51.840;7.258;2022-08-01T03:35:01;20.20;99.90
58447;DHT22;44240;51.840;7.258;2022-08-01T03:37:32;20.20;99.90
58447;DHT22;44240;51.840;7.258;2022-08-01T03:40:22;20.20;99.90
58447;DHT22;44240;51.840;7.258;2022-08-01T03:42:52;20.20;99.90
58447;DHT22;44240;51.840;7.258;2022-08-01T03:45:22;20.20;99.90
58447;DHT22;44240;51.840;7.258;2022-08-01T03:47:51;20.20;99.90
58447;DHT22;44240;51.840;7.258;2022-08-01T03:50:20;20.20;99.90
58447;DHT22;44240;51.840;7.258;2022-08-01T03:52:46;20.20;99.90
58447;DHT22;44240;51.840;7.258;2022-08-01T03:55:15;20.20;99.90
58447;DHT22;44240;51.840;7.258;2022-08-01T03:57:43;20.20;99.90
58447;DHT22;44240;51.840;7.258;2022-08-01T04:00:10;20.20;99.90
58447;DHT22;44240;51.840;7.258;2022-08-01T04:02:36;20.20;99.90
58447;DHT22;44240;51.840;7.258;2022-08-01T04:05:03;20.20;99.90
58447;DHT22;44240;51.840;7.258;2022-08-01T04:07:31;20.20;99.90
58447;DHT22;44240;51.840;7.258;2022-08-01T04:09:57;20.20;99.90
58447;DHT22;44240;51.840;7.258;2022-08-01T04:12:23;20.20;99.90
58447;DHT22;44240;51.840;7.258;2022-08-01T04:14:48;20.20;99.90
58447;DHT22;44240;51.840;7.258;2022-08-01T04:17:15;20.20;99.90
58447;DHT22;44240;51.840;7.258;2022-08-01T04:19:41;20.20;99.90
58447;DHT22;44240;51.840;7.258;2022-08-01T04:22:08;20.20;99.90
58447;DHT22;44240;51.840;7.258;2022-08-01T04:24:35;20.20;99.90
58447;DHT22;44240;51.840;7.258;2022-08-01T04:27:05;20.20;99.90
58447;DHT22;44240;51.840;7.258;2022-08-01T04:29:35;20.20;99.90
58447;DHT22;44240;51.840;7.258;2022-08-01T04:32:02;20.20;99.90
58447;DHT22;44240;51.840;7.258;2022-08-01T04:34:29;20.30;99.90
58447;DHT22;44240;51.840;7.258;2022-08-01T04:36:57;20.20;99.90
58447;DHT22;44240;51.840;7.258;2022-08-01T04:39:24;20.30;99.90
58447;DHT22;44240;51.840;7.258;2022-08-01T04:41:58;20.20;99.90
58447;DHT22;44240;51.840;7.258;2022-08-01T04:44:24;20.20;99.90
58447;DHT22;44240;51.840;7.258;2022-08-01T04:46:51;20.30;99.90
58447;DHT22;44240;51.840;7.258;2022-08-01T04:49:20;20.30;99.90
58447;DHT22;44240;51.840;7.258;2022-08-01T04:51:50;20.30;99.90
58447;DHT22;44240;51.840;7.258;2022-08-01T04:54:16;20.30;99.90
58447;DHT22;44240;51.840;7.258;2022-08-01T04:56:42;20.30;99.90
58447;DHT22;44240;51.840;7.258;2022-08-01T04:59:08;20.40;99.90
58447;DHT22;44240;51.840;7.258;2022-08-01T05:01:52;20.30;99.90
58447;DHT22;44240;51.840;7.258;2022-08-01T05:04:17;20.30;99.90
58447;DHT22;44240;51.840;7.258;2022-08-01T05:06:43;20.30;99.90
58447;DHT22;44240;51.840;7.258;2022-08-01T05:09:09;20.30;99.90
58447;DHT22;44240;51.840;7.258;2022-08-01T05:11:35;20.30;99.90
58447;DHT22;44240;51.840;7.258;2022-08-01T05:14:00;20.40;99.90
58447;DHT22;44240;51.840;7.258;2022-08-01T05:16:26;20.40;99.90
58447;DHT22;44240;51.840;7.258;2022-08-01T05:18:51;20.40;99.90
58447;DHT22;44240;51.840;7.258;2022-08-01T05:21:17;20.40;99.90
58447;DHT22;44240;51.840;7.258;2022-08-01T05:23:42;20.40;99.90
58447;DHT22;44240;51.840;7.258;2022-08-01T05:26:10;20.40;99.90
58447;DHT22;44240;51.840;7.258;2022-08-01T05:28:35;20.40;99.90
58447;DHT22;44240;51.840;7.258;2022-08-01T05:31:01;20.40;99.90
58447;DHT22;44240;51.840;7.258;2022-08-01T05:33:26;20.40;99.90
58447;DHT22;44240;51.840;7.258;2022-08-01T05:35:52;20.40;99.90
58447;DHT22;44240;51.840;7.258;2022-08-01T05:38:17;20.40;99.90
58447;DHT22;44240;51.840;7.258;2022-08-01T05:40:43;20.40;99.90
58447;DHT22;44240;51.840;7.258;2022-08-01T05:43:09;20.40;99.90
58447;DHT22;44240;51.840;7.258;2022-08-01T05:45:34;20.50;99.90
58447;DHT22;44240;51.840;7.258;2022-08-01T05:48:00;20.50;99.90
58447;DHT22;44240;51.840;7.258;2022-08-01T05:50:25;20.50;99.90
58447;DHT22;44240;51.840;7.258;2022-08-01T05:52:51;20.50;99.90
58447;DHT22;44240;51.840;7.258;2022-08-01T05:55:16;20.40;99.90
58447;DHT22;44240;51.840;7.258;2022-08-01T05:57:42;20.50;99.90
58447;DHT22;44240;51.840;7.258;2022-08-01T06:00:08;20.40;99.90
58447;DHT22;44240;51.840;7.258;2022-08-01T06:02:33;20.40;99.90
58447;DHT22;44240;51.840;7.258;2022-08-01T06:04:59;20.40;99.90
58447;DHT22;44240;51.840;7.258;2022-08-01T06:07:24;20.50;99.90
58447;DHT22;44240;51.840;7.258;2022-08-01T06:09:50;20.50;99.90
58447;DHT22;44240;51.840;7.258;2022-08-01T06:12:15;20.50;99.90
58447;DHT22;44240;51.840;7.258;2022-08-01T06:14:41;20.40;99.90
58447;DHT22;44240;51.840;7.258;2022-08-01T06:17:06;20.50;99.90
58447;DHT22;44240;51.840;7.258;2022-08-01T06:19:32;20.50;99.90
58447;DHT22;44240;51.840;7.258;2022-08-01T06:21:57;20.50;99.90
58447;DHT22;44240;51.840;7.258;2022-08-01T06:24:23;20.60;99.90
58447;DHT22;44240;51.840;7.258;2022-08-01T06:26:49;20.60;99.90
58447;DHT22;44240;51.840;7.258;2022-08-01T06:29:15;20.70;99.90
58447;DHT22;44240;51.840;7.258;2022-08-01T06:31:40;20.80;99.90
58447;DHT22;44240;51.840;7.258;2022-08-01T06:34:06;20.80;99.90
58447;DHT22;44240;51.840;7.258;2022-08-01T06:36:31;20.80;99.90
58447;DHT22;44240;51.840;7.258;2022-08-01T06:38:57;20.80;99.90
58447;DHT22;44240;51.840;7.258;2022-08-01T06:41:22;20.80;99.90
58447;DHT22;44240;51.840;7.258;2022-08-01T06:43:48;20.80;99.90
58447;DHT22;44240;51.840;7.258;2022-08-01T06:46:14;20.80;99.90
58447;DHT22;44240;51.840;7.258;2022-08-01T06:48:39;20.80;99.90
58447;DHT22;44240;51.840;7.258;2022-08-01T06:51:05;20.70;99.90
58447;DHT22;44240;51.840;7.258;2022-08-01T06:53:35;20.70;99.90
58447;DHT22;44240;51.840;7.258;2022-08-01T06:56:02;20.60;99.90
58447;DHT22;44240;51.840;7.258;2022-08-01T06:58:27;20.60;99.90
58447;DHT22;44240;51.840;7.258;2022-08-01T07:00:53;20.60;99.90
58447;DHT22;44240;51.840;7.258;2022-08-01T07:03:18;20.60;99.90
58447;DHT22;44240;51.840;7.258;2022-08-01T07:05:44;20.60;99.90
58447;DHT22;44240;51.840;7.258;2022-08-01T07:08:09;20.60;99.90
58447;DHT22;44240;51.840;7.258;2022-08-01T07:10:35;20.50;99.90
58447;DHT22;44240;51.840;7.258;2022-08-01T07:13:00;20.50;99.90
58447;DHT22;44240;51.840;7.258;2022-08-01T07:15:26;20.50;99.90
58447;DHT22;44240;51.840;7.258;2022-08-01T07:17:52;20.50;99.90
58447;DHT22;44240;51.840;7.258;2022-08-01T07:20:18;20.50;99.90
58447;DHT22;44240;51.840;7.258;2022-08-01T07:22:43;20.50;99.90
58447;DHT22;44240;51.840;7.258;2022-08-01T07:25:09;20.50;99.90
58447;DHT22;44240;51.840;7.258;2022-08-01T07:27:35;20.50;99.90
58447;DHT22;44240;51.840;7.258;2022-08-01T07:30:02;20.50;99.90
58447;DHT22;44240;51.840;7.258;2022-08-01T07:32:28;20.50;99.90
58447;DHT22;44240;51.840;7.258;2022-08-01T07:34:54;20.50;99.90
58447;DHT22;44240;51.840;7.258;2022-08-01T07:37:20;20.50;99.90
58447;DHT22;44240;51.840;7.258;2022-08-01T07:39:45;20.50;99.90
58447;DHT22;44240;51.840;7.258;2022-08-01T07:42:11;20.60;99.90
58447;DHT22;44240;51.840;7.258;2022-08-01T07:44:37;20.60;99.90
58447;DHT22;44240;51.840;7.258;2022-08-01T07:47:03;20.60;99.90
58447;DHT22;44240;51.840;7.258;2022-08-01T07:49:28;20.70;99.90
58447;DHT22;44240;51.840;7.258;2022-08-01T07:51:54;20.70;99.90
58447;DHT22;44240;51.840;7.258;2022-08-01T07:54:20;20.70;99.90
58447;DHT22;44240;51.840;7.258;2022-08-01T07:56:45;20.80;99.90
58447;DHT22;44240;51.840;7.258;2022-08-01T07:59:11;20.80;99.90
58447;DHT22;44240;51.840;7.258;2022-08-01T08:01:36;20.90;99.90
58447;DHT22;44240;51.840;7.258;2022-08-01T08:04:02;21.00;99.90
58447;DHT22;44240;51.840;7.258;2022-08-01T08:06:28;21.00;99.90
58447;DHT22;44240;51.840;7.258;2022-08-01T08:08:53;21.00;99.90
58447;DHT22;44240;51.840;7.258;2022-08-01T08:11:19;21.10;99.90
58447;DHT22;44240;51.840;7.258;2022-08-01T08:13:45;21.10;99.90
58447;DHT22;44240;51.840;7.258;2022-08-01T08:16:10;21.10;99.90
58447;DHT22;44240;51.840;7.258;2022-08-01T08:18:36;21.10;99.90
58447;DHT22;44240;51.840;7.258;2022-08-01T08:21:03;21.00;99.90
58447;DHT22;44240;51.840;7.258;2022-08-01T08:23:28;21.00;99.90
58447;DHT22;44240;51.840;7.258;2022-08-01T08:26:12;21.00;99.90
58447;DHT22;44240;51.840;7.258;2022-08-01T08:28:38;21.00;99.90
58447;DHT22;44240;51.840;7.258;2022-08-01T08:31:03;21.00;99.90
58447;DHT22;44240;51.840;7.258;2022-08-01T08:33:29;21.00;99.90
58447;DHT22;44240;51.840;7.258;2022-08-01T08:35:54;21.00;99.90
58447;DHT22;44240;51.840;7.258;2022-08-01T08:38:20;21.00;99.90
58447;DHT22;44240;51.840;7.258;2022-08-01T08:40:46;21.00;99.90
58447;DHT22;44240;51.840;7.258;2022-08-01T08:43:11;20.90;99.90
58447;DHT22;44240;51.840;7.258;2022-08-01T08:45:37;20.90;99.90
58447;DHT22;44240;51.840;7.258;2022-08-01T08:48:05;20.80;99.90
58447;DHT22;44240;51.840;7.258;2022-08-01T08:50:31;20.70;99.90
58447;DHT22;44240;51.840;7.258;2022-08-01T08:52:58;20.70;99.90
58447;DHT22;44240;51.840;7.258;2022-08-01T08:55:26;20.60;99.90
58447;DHT22;44240;51.840;7.258;2022-08-01T08:57:54;20.60;99.90
58447;DHT22;44240;51.840;7.258;2022-08-01T09:00:20;20.60;99.90
58447;DHT22;44240;51.840;7.258;2022-08-01T09:02:47;20.60;99.90
58447;DHT22;44240;51.840;7.258;2022-08-01T09:05:14;20.60;99.90
58447;DHT22;44240;51.840;7.258;2022-08-01T09:07:40;20.60;99.90
58447;DHT22;44240;51.840;7.258;2022-08-01T09:10:07;20.60;99.90
58447;DHT22;44240;51.840;7.258;2022-08-01T09:12:32;20.70;99.90
58447;DHT22;44240;51.840;7.258;2022-08-01T09:14:58;20.70;99.90
58447;DHT22;44240;51.840;7.258;2022-08-01T09:17:23;20.70;99.90
58447;DHT22;44240;51.840;7.258;2022-08-01T09:19:51;20.70;99.90
58447;DHT22;44240;51.840;7.258;2022-08-01T09:22:19;20.80;99.90
58447;DHT22;44240;51.840;7.258;2022-08-01T09:25:04;20.80;99.90
58447;DHT22;44240;51.840;7.258;2022-08-01T09:27:31;20.80;99.90
58447;DHT22;44240;51.840;7.258;2022-08-01T09:32:36;20.80;99.90
58447;DHT22;44240;51.840;7.258;2022-08-01T09:35:38;20.80;99.90
58447;DHT22;44240;51.840;7.258;2022-08-01T09:38:15;20.80;99.90
58447;DHT22;44240;51.840;7.258;2022-08-01T09:40:49;20.80;99.90
58447;DHT22;44240;51.840;7.258;2022-08-01T09:43:16;20.80;99.90
58447;DHT22;44240;51.840;7.258;2022-08-01T09:45:42;20.80;99.90
58447;DHT22;44240;51.840;7.258;2022-08-01T09:48:08;20.80;99.90
58447;DHT22;44240;51.840;7.258;2022-08-01T09:50:45;20.90;99.90
58447;DHT22;44240;51.840;7.258;2022-08-01T09:53:11;21.00;99.90
58447;DHT22;44240;51.840;7.258;2022-08-01T09:55:38;21.00;99.90
58447;DHT22;44240;51.840;7.258;2022-08-01T09:58:04;21.00;99.90
58447;DHT22;44240;51.840;7.258;2022-08-01T10:00:34;21.10;99.90
58447;DHT22;44240;51.840;7.258;2022-08-01T10:03:17;21.20;99.90
58447;DHT22;44240;51.840;7.258;2022-08-01T10:05:43;21.20;99.90
58447;DHT22;44240;51.840;7.258;2022-08-01T10:08:09;21.30;99.90
58447;DHT22;44240;51.840;7.258;2022-08-01T10:10:35;21.30;99.90
58447;DHT22;44240;51.840;7.258;2022-08-01T10:13:01;21.40;99.90
58447;DHT22;44240;51.840;7.258;2022-08-01T10:15:28;21.40;99.90
58447;DHT22;44240;51.840;7.258;2022-08-01T10:18:00;21.40;99.90
58447;DHT22;44240;51.840;7.258;2022-08-01T10:20:31;21.50;99.90
58447;DHT22;44240;51.840;7.258;2022-08-01T10:23:02;21.60;99.90
58447;DHT22;44240;51.840;7.258;2022-08-01T10:25:31;21.70;99.90
58447;DHT22;44240;51.840;7.258;2022-08-01T10:27:59;21.70;99.90
58447;DHT22;44240;51.840;7.258;2022-08-01T10:30:27;21.70;99.90
58447;DHT22;44240;51.840;7.258;2022-08-01T10:32:54;21.70;99.90
58447;DHT22;44240;51.840;7.258;2022-08-01T10:35:21;21.70;99.90
58447;DHT22;44240;51.840;7.258;2022-08-01T10:37:47;21.60;99.90
58447;DHT22;44240;51.840;7.258;2022-08-01T10:40:14;21.50;99.90
58447;DHT22;44240;51.840;7.258;2022-08-01T10:42:44;21.50;99.90
58447;DHT22;44240;51.840;7.258;2022-08-01T10:45:12;21.50;99.90
58447;DHT22;44240;51.840;7.258;2022-08-01T10:47:45;21.50;99.90
58447;DHT22;44240;51.840;7.258;2022-08-01T10:50:33;21.50;99.90
58447;DHT22;44240;51.840;7.258;2022-08-01T11:01:22;21.70;99.90
58447;DHT22;44240;51.840;7.258;2022-08-01T11:09:15;21.90;99.90
58447;DHT22;44240;51.840;7.258;2022-08-01T11:12:13;22.00;99.90
58447;DHT22;44240;51.840;7.258;2022-08-01T11:17:38;22.10;99.90
58447;DHT22;44240;51.840;7.258;2022-08-01T11:20:28;22.00;99.90
58447;DHT22;44240;51.840;7.258;2022-08-01T11:41:15;22.40;99.90
58447;DHT22;44240;51.840;7.258;2022-08-01T11:54:54;22.50;99.90
58447;DHT22;44240;51.840;7.258;2022-08-01T11:57:25;22.50;99.90
58447;DHT22;44240;51.840;7.258;2022-08-01T11:59:56;22.60;99.90
58447;DHT22;44240;51.840;7.258;2022-08-01T12:02:25;22.60;99.90
58447;DHT22;44240;51.840;7.258;2022-08-01T12:04:58;22.60;99.90
58447;DHT22;44240;51.840;7.258;2022-08-01T12:07:27;22.70;99.90
58447;DHT22;44240;51.840;7.258;2022-08-01T12:10:04;22.80;99.90
58447;DHT22;44240;51.840;7.258;2022-08-01T12:12:31;22.90;99.90
58447;DHT22;44240;51.840;7.258;2022-08-01T12:14:59;22.90;99.90
58447;DHT22;44240;51.840;7.258;2022-08-01T12:17:34;22.90;99.90
58447;DHT22;44240;51.840;7.258;2022-08-01T12:20:01;23.00;99.90
58447;DHT22;44240;51.840;7.258;2022-08-01T12:22:27;23.00;99.90
58447;DHT22;44240;51.840;7.258;2022-08-01T12:24:54;23.10;99.90
58447;DHT22;44240;51.840;7.258;2022-08-01T12:27:25;23.10;99.90
58447;DHT22;44240;51.840;7.258;2022-08-01T12:29:51;23.20;99.90
58447;DHT22;44240;51.840;7.258;2022-08-01T12:32:25;23.30;99.90
58447;DHT22;44240;51.840;7.258;2022-08-01T12:34:53;23.40;99.90
58447;DHT22;44240;51.840;7.258;2022-08-01T12:37:19;23.40;99.90
58447;DHT22;44240;51.840;7.258;2022-08-01T12:39:45;23.40;99.90
58447;DHT22;44240;51.840;7.258;2022-08-01T12:42:12;23.50;99.90
58447;DHT22;44240;51.840;7.258;2022-08-01T12:44:38;23.50;99.90
58447;DHT22;44240;51.840;7.258;2022-08-01T12:49:33;23.50;99.40
58447;DHT22;44240;51.840;7.258;2022-08-01T12:52:00;23.50;99.50
58447;DHT22;44240;51.840;7.258;2022-08-01T12:54:26;23.60;99.90
58447;DHT22;44240;51.840;7.258;2022-08-01T12:56:52;23.60;99.80
58447;DHT22;44240;51.840;7.258;2022-08-01T12:59:24;23.70;99.50
58447;DHT22;44240;51.840;7.258;2022-08-01T13:01:54;23.70;99.50
58447;DHT22;44240;51.840;7.258;2022-08-01T13:04:21;23.80;99.40
58447;DHT22;44240;51.840;7.258;2022-08-01T13:06:47;23.90;99.20
58447;DHT22;44240;51.840;7.258;2022-08-01T13:09:13;24.00;99.00
58447;DHT22;44240;51.840;7.258;2022-08-01T13:11:42;24.10;98.50
58447;DHT22;44240;51.840;7.258;2022-08-01T13:14:09;24.20;98.00
58447;DHT22;44240;51.840;7.258;2022-08-01T13:16:46;24.20;97.90
58447;DHT22;44240;51.840;7.258;2022-08-01T13:19:12;24.20;98.00
58447;DHT22;44240;51.840;7.258;2022-08-01T13:21:37;24.30;97.90
58447;DHT22;44240;51.840;7.258;2022-08-01T13:24:08;24.30;97.90
58447;DHT22;44240;51.840;7.258;2022-08-01T13:29:12;24.30;96.70
58447;DHT22;44240;51.840;7.258;2022-08-01T13:31:39;24.20;96.30
58447;DHT22;44240;51.840;7.258;2022-08-01T13:34:05;24.10;96.10
58447;DHT22;44240;51.840;7.258;2022-08-01T13:36:31;24.10;96.30
58447;DHT22;44240;51.840;7.258;2022-08-01T13:38:58;24.20;96.30
58447;DHT22;44240;51.840;7.258;2022-08-01T13:41:42;24.30;96.10
58447;DHT22;44240;51.840;7.258;2022-08-01T13:44:08;24.30;96.00
58447;DHT22;44240;51.840;7.258;2022-08-01T13:46:34;24.30;96.00
58447;DHT22;44240;51.840;7.258;2022-08-01T13:49:00;24.30;95.90
58447;DHT22;44240;51.840;7.258;2022-08-01T13:51:26;24.30;95.60
58447;DHT22;44240;51.840;7.258;2022-08-01T13:53:51;24.30;95.40
58447;DHT22;44240;51.840;7.258;2022-08-01T13:56:17;24.30;95.60
58447;DHT22;44240;51.840;7.258;2022-08-01T13:58:43;24.40;95.80
58447;DHT22;44240;51.840;7.258;2022-08-01T14:01:09;24.50;95.30
58447;DHT22;44240;51.840;7.258;2022-08-01T14:03:35;24.50;94.40
58447;DHT22;44240;51.840;7.258;2022-08-01T14:06:01;24.50;94.00
58447;DHT22;44240;51.840;7.258;2022-08-01T14:08:27;24.50;93.70
58447;DHT22;44240;51.840;7.258;2022-08-01T14:10:52;24.60;94.00
58447;DHT22;44240;51.840;7.258;2022-08-01T14:13:19;24.70;94.00
58447;DHT22;44240;51.840;7.258;2022-08-01T14:15:44;24.70;93.60
58447;DHT22;44240;51.840;7.258;2022-08-01T14:18:10;24.70;93.70
58447;DHT22;44240;51.840;7.258;2022-08-01T14:20:36;24.80;93.30
58447;DHT22;44240;51.840;7.258;2022-08-01T14:23:02;24.70;93.10
58447;DHT22;44240;51.840;7.258;2022-08-01T14:25:28;24.70;92.40
58447;DHT22;44240;51.840;7.258;2022-08-01T14:27:53;24.60;92.20
58447;DHT22;44240;51.840;7.258;2022-08-01T14:30:19;24.60;92.60
58447;DHT22;44240;51.840;7.258;2022-08-01T14:32:45;24.80;92.70
58447;DHT22;44240;51.840;7.258;2022-08-01T14:35:11;25.10;92.70
58447;DHT22;44240;51.840;7.258;2022-08-01T14:37:36;25.20;92.20
58447;DHT22;44240;51.840;7.258;2022-08-01T14:40:03;25.40;92.00
58447;DHT22;44240;51.840;7.258;2022-08-01T14:42:30;25.60;92.30
58447;DHT22;44240;51.840;7.258;2022-08-01T14:44:56;25.80;91.70
58447;DHT22;44240;51.840;7.258;2022-08-01T14:47:22;25.80;91.30
58447;DHT22;44240;51.840;7.258;2022-08-01T14:49:48;25.90;91.60
58447;DHT22;44240;51.840;7.258;2022-08-01T14:52:13;25.90;91.30
58447;DHT22;44240;51.840;7.258;2022-08-01T14:54:39;25.80;91.40
58447;DHT22;44240;51.840;7.258;2022-08-01T14:57:04;25.80;91.50
58447;DHT22;44240;51.840;7.258;2022-08-01T14:59:30;25.80;91.30
58447;DHT22;44240;51.840;7.258;2022-08-01T15:01:55;25.80;91.40
58447;DHT22;44240;51.840;7.258;2022-08-01T15:04:21;25.70;91.30
58447;DHT22;44240;51.840;7.258;2022-08-01T15:06:46;25.80;91.50
58447;DHT22;44240;51.840;7.258;2022-08-01T15:09:12;26.00;91.80
58447;DHT22;44240;51.840;7.258;2022-08-01T15:11:38;26.10;91.40
58447;DHT22;44240;51.840;7.258;2022-08-01T15:14:03;26.10;91.30
58447;DHT22;44240;51.840;7.258;2022-08-01T15:16:47;26.10;91.20
58447;DHT22;44240;51.840;7.258;2022-08-01T15:19:14;26.10;91.00
58447;DHT22;44240;51.840;7.258;2022-08-01T15:21:39;26.00;90.90
58447;DHT22;44240;51.840;7.258;2022-08-01T15:24:05;26.10;91.10
58447;DHT22;44240;51.840;7.258;2022-08-01T15:26:31;26.10;90.70
58447;DHT22;44240;51.840;7.258;2022-08-01T15:28:57;26.10;90.70
58447;DHT22;44240;51.840;7.258;2022-08-01T15:31:23;26.00;90.60
58447;DHT22;44240;51.840;7.258;2022-08-01T15:33:49;25.90;90.30
58447;DHT22;44240;51.840;7.258;2022-08-01T15:36:14;25.70;90.70
58447;DHT22;44240;51.840;7.258;2022-08-01T15:38:40;25.60;90.50
58447;DHT22;44240;51.840;7.258;2022-08-01T15:41:05;25.60;90.60
58447;DHT22;44240;51.840;7.258;2022-08-01T15:43:31;25.50;90.60
58447;DHT22;44240;51.840;7.258;2022-08-01T15:45:57;25.40;90.40
58447;DHT22;44240;51.840;7.258;2022-08-01T15:48:23;25.30;90.50
58447;DHT22;44240;51.840;7.258;2022-08-01T15:50:49;25.20;90.50
58447;DHT22;44240;51.840;7.258;2022-08-01T15:53:15;25.20;90.80
58447;DHT22;44240;51.840;7.258;2022-08-01T15:55:41;25.20;90.70
58447;DHT22;44240;51.840;7.258;2022-08-01T15:58:07;25.20;91.30
58447;DHT22;44240;51.840;7.258;2022-08-01T16:00:32;25.30;91.30
58447;DHT22;44240;51.840;7.258;2022-08-01T16:02:58;25.40;91.00
58447;DHT22;44240;51.840;7.258;2022-08-01T16:05:24;25.50;90.90
58447;DHT22;44240;51.840;7.258;2022-08-01T16:07:49;25.70;90.90
58447;DHT22;44240;51.840;7.258;2022-08-01T16:10:15;25.80;90.90
58447;DHT22;44240;51.840;7.258;2022-08-01T16:12:40;26.10;90.80
58447;DHT22;44240;51.840;7.258;2022-08-01T16:15:06;26.20;90.50
58447;DHT22;44240;51.840;7.258;2022-08-01T16:17:32;26.30;90.00
58447;DHT22;44240;51.840;7.258;2022-08-01T16:19:58;26.40;89.60
58447;DHT22;44240;51.840;7.258;2022-08-01T16:22:24;26.50;89.50
58447;DHT22;44240;51.840;7.258;2022-08-01T16:24:49;26.50;89.60
58447;DHT22;44240;51.840;7.258;2022-08-01T16:27:16;26.60;89.70
58447;DHT22;44240;51.840;7.258;2022-08-01T16:29:41;26.60;88.60
58447;DHT22;44240;51.840;7.258;2022-08-01T16:32:07;26.70;88.60
58447;DHT22;44240;51.840;7.258;2022-08-01T16:34:33;26.70;88.60